Time;durP1;ratioP1;P1;durP2;ratioP2;P2;SDS_P1;SDS_P2;PMS_P1;PMS_P2;Temp;Humidity;BMP_temperature;BMP_pressure;BME280_temperature;BME280_humidity;BME280_pressure;Samples;Min_cycle;Max_cycle;Signal;HPM_P1;HPM_P2
2023/04/09 00:00:24;;;;;;;87.50;36.25;;;;;;;7.83;100.00;102554.78;5049767;28;20067;-49
2023/04/09 00:02:50;;;;;;;84.10;36.17;;;;;;;7.86;100.00;102562.59;5050324;28;20032;-48
2023/04/09 00:05:15;;;;;;;86.50;35.35;;;;;;;7.87;100.00;102559.81;5051884;28;20128;-49
2023/04/09 00:07:40;;;;;;;87.75;37.72;;;;;;;7.81;100.00;102559.41;5051531;28;20056;-48
2023/04/09 00:10:06;;;;;;;90.68;37.05;;;;;;;7.70;100.00;102558.44;5052322;28;20029;-47
2023/04/09 00:12:32;;;;;;;92.47;37.38;;;;;;;7.67;100.00;102564.03;5051763;28;20378;-49
2023/04/09 00:14:57;;;;;;;88.63;36.72;;;;;;;7.62;100.00;102560.88;5051806;28;20032;-48
2023/04/09 00:17:22;;;;;;;86.53;35.53;;;;;;;7.59;100.00;102558.44;5051280;28;20029;-49
2023/04/09 00:19:48;;;;;;;89.00;37.47;;;;;;;7.58;100.00;102556.75;5053413;28;20036;-48
2023/04/09 00:22:14;;;;;;;89.63;37.35;;;;;;;7.55;100.00;102567.66;5053889;28;20036;-49
2023/04/09 00:24:39;;;;;;;88.90;36.28;;;;;;;7.54;100.00;102557.09;5054263;28;20388;-51
2023/04/09 00:27:05;;;;;;;94.47;37.70;;;;;;;7.46;100.00;102563.06;5053493;28;20021;-49
2023/04/09 00:29:30;;;;;;;95.40;38.83;;;;;;;7.45;100.00;102558.66;5053593;28;20051;-48
2023/04/09 00:31:56;;;;;;;91.90;39.10;;;;;;;7.46;100.00;102560.38;5054299;28;20031;-48
2023/04/09 00:34:21;;;;;;;102.35;37.92;;;;;;;7.45;100.00;102555.97;5053247;28;20098;-49
2023/04/09 00:36:47;;;;;;;90.47;37.30;;;;;;;7.42;100.00;102553.53;5053761;28;20095;-48
2023/04/09 00:39:13;;;;;;;97.45;39.08;;;;;;;7.41;100.00;102551.84;5053901;28;20033;-48
2023/04/09 00:41:38;;;;;;;102.55;38.78;;;;;;;7.41;100.00;102555.38;5054183;28;20080;-48
2023/04/09 00:44:03;;;;;;;98.53;38.90;;;;;;;7.39;100.00;102546.59;5053602;28;20045;-50
2023/04/09 00:46:30;;;;;;;97.22;39.60;;;;;;;7.36;100.00;102554.03;5053977;28;20056;-48
2023/04/09 00:48:55;;;;;;;99.07;39.75;;;;;;;7.34;100.00;102550.59;5052955;28;20104;-49
2023/04/09 00:51:21;;;;;;;107.47;41.22;;;;;;;7.34;100.00;102556.81;5054076;28;20060;-48
2023/04/09 00:53:46;;;;;;;104.32;39.65;;;;;;;7.31;100.00;102550.84;5053051;28;20059;-46
2023/04/09 00:56:12;;;;;;;112.22;42.28;;;;;;;7.34;100.00;102547.91;5054330;28;20045;-51
2023/04/09 00:58:39;;;;;;;107.03;40.42;;;;;;;7.28;100.00;102545.72;5052631;28;20405;-49
2023/04/09 01:01:05;;;;;;;108.82;43.25;;;;;;;7.33;100.00;102546.22;5053993;28;20021;-49
2023/04/09 01:03:30;;;;;;;111.00;42.90;;;;;;;7.34;100.00;102546.09;5053100;28;20521;-48
2023/04/09 01:06:08;;;;;;;116.13;42.83;;;;;;;7.40;100.00;102548.31;5051555;28;20474;-48
2023/04/09 01:09:12;;;;;;;117.72;43.33;;;;;;;7.35;100.00;102553.16;5053152;28;20375;-49
2023/04/09 01:11:44;;;;;;;107.55;41.72;;;;;;;7.32;100.00;102553.41;5034636;28;20469;-49
2023/04/09 01:14:40;;;;;;;110.63;42.40;;;;;;;7.30;100.00;102549.16;5051449;28;20469;-48
2023/04/09 01:17:12;;;;;;;118.70;42.33;;;;;;;7.31;100.00;102556.19;5052538;28;20050;-48
2023/04/09 01:19:43;;;;;;;110.07;40.90;;;;;;;7.28;100.00;102551.09;5051651;28;20033;-47
2023/04/09 01:22:37;;;;;;;115.32;43.45;;;;;;;7.31;100.00;102543.66;5051218;28;20029;-47
2023/04/09 01:25:37;;;;;;;120.22;43.60;;;;;;;7.34;100.00;102547.91;5052559;28;20116;-48
2023/04/09 01:28:17;;;;;;;121.00;42.85;;;;;;;7.32;100.00;102541.81;5051071;28;20078;-47
2023/04/09 01:30:46;;;;;;;119.70;43.45;;;;;;;7.37;100.00;102545.00;5051088;28;20051;-49
2023/04/09 01:33:12;;;;;;;119.95;45.00;;;;;;;7.31;100.00;102546.34;5050832;28;20082;-48
2023/04/09 01:35:41;;;;;;;121.43;43.70;;;;;;;7.32;100.00;102536.47;5050985;28;20033;-49
2023/04/09 01:38:07;;;;;;;123.95;45.13;;;;;;;7.28;100.00;102541.22;5050802;28;20470;-49
2023/04/09 01:40:32;;;;;;;122.10;44.63;;;;;;;7.21;100.00;102539.97;5052257;28;20071;-49
2023/04/09 01:42:58;;;;;;;124.90;44.78;;;;;;;7.19;100.00;102534.75;5051154;28;20091;-48
2023/04/09 01:45:24;;;;;;;128.70;46.67;;;;;;;7.19;100.00;102542.78;5051988;28;20025;-48
2023/04/09 01:47:50;;;;;;;122.15;45.20;;;;;;;7.16;100.00;102542.16;5051054;28;20093;-48
2023/04/09 01:50:16;;;;;;;116.47;45.58;;;;;;;7.17;100.00;102543.88;5051923;28;20072;-49
2023/04/09 01:52:41;;;;;;;126.00;42.97;;;;;;;7.16;100.00;102543.03;5051831;28;20146;-48
2023/04/09 01:55:07;;;;;;;140.60;44.10;;;;;;;7.10;100.00;102532.78;5051737;28;20045;-49
2023/04/09 01:57:32;;;;;;;125.60;45.35;;;;;;;7.11;100.00;102539.84;5051846;28;20559;-46
2023/04/09 01:59:58;;;;;;;116.38;41.83;;;;;;;7.07;100.00;102538.38;5051646;28;20413;-48
2023/04/09 02:02:36;;;;;;;127.72;47.00;;;;;;;7.07;100.00;102534.84;5052083;28;20029;-47
2023/04/09 02:05:06;;;;;;;125.07;45.50;;;;;;;7.02;100.00;102538.72;5050483;28;20036;-46
2023/04/09 02:07:37;;;;;;;128.90;44.72;;;;;;;7.02;100.00;102535.19;5050475;28;20473;-48
2023/04/09 02:10:05;;;;;;;128.73;44.97;;;;;;;7.03;100.00;102529.72;5050111;28;20032;-48
2023/04/09 02:12:32;;;;;;;131.52;46.13;;;;;;;7.06;100.00;102528.63;5050507;28;20145;-48
2023/04/09 02:15:00;;;;;;;128.50;46.42;;;;;;;7.10;100.00;102527.41;5051436;28;20025;-48
2023/04/09 02:17:25;;;;;;;125.68;46.38;;;;;;;7.07;100.00;102533.00;5050516;28;20083;-46
2023/04/09 02:19:51;;;;;;;129.57;47.50;;;;;;;7.04;100.00;102528.75;5051468;28;20512;-47
2023/04/09 02:22:17;;;;;;;127.18;44.47;;;;;;;7.08;100.00;102529.34;5051138;28;20053;-48
2023/04/09 02:24:42;;;;;;;123.72;46.20;;;;;;;7.02;100.00;102525.31;5051656;28;20089;-48
2023/04/09 02:27:08;;;;;;;127.38;45.00;;;;;;;6.98;100.00;102523.03;5051240;28;20033;-49
2023/04/09 02:29:33;;;;;;;136.70;46.55;;;;;;;6.93;100.00;102522.53;5051153;28;20440;-47
2023/04/09 02:31:59;;;;;;;128.57;47.42;;;;;;;6.93;100.00;102518.00;5050877;28;20135;-47
2023/04/09 02:34:24;;;;;;;132.35;46.70;;;;;;;6.92;100.00;102524.31;5050944;28;20025;-47
2023/04/09 02:36:50;;;;;;;124.68;45.35;;;;;;;6.90;100.00;102522.72;5051120;28;20287;-47
2023/04/09 02:39:15;;;;;;;144.15;49.85;;;;;;;6.88;100.00;102524.69;5050926;28;20035;-49
2023/04/09 02:41:40;;;;;;;131.63;46.45;;;;;;;6.87;100.00;102525.63;5050507;28;20036;-47
2023/04/09 02:44:06;;;;;;;133.38;48.28;;;;;;;6.87;100.00;102521.13;5051077;28;20029;-47
2023/04/09 02:46:31;;;;;;;132.93;45.75;;;;;;;6.87;100.00;102528.31;5050997;28;20020;-46
2023/04/09 02:48:56;;;;;;;130.60;47.17;;;;;;;6.86;100.00;102523.94;5066631;28;20040;-49
2023/04/09 02:51:22;;;;;;;131.90;45.80;;;;;;;6.84;100.00;102517.84;5050739;28;20104;-48
2023/04/09 02:53:47;;;;;;;131.20;45.67;;;;;;;6.80;100.00;102512.75;5051127;28;20087;-48
2023/04/09 02:56:13;;;;;;;131.68;47.38;;;;;;;6.78;100.00;102511.16;5051355;28;20032;-48
2023/04/09 02:58:38;;;;;;;141.90;49.70;;;;;;;6.80;100.00;102514.56;5050935;28;20258;-47
2023/04/09 03:01:03;;;;;;;127.78;46.47;;;;;;;6.79;100.00;102511.03;5050860;28;20021;-49
2023/04/09 03:03:29;;;;;;;139.30;49.67;;;;;;;6.80;100.00;102504.72;5050962;28;20025;-47
2023/04/09 03:05:55;;;;;;;137.43;48.25;;;;;;;6.80;100.00;102512.75;5050951;28;20044;-49
2023/04/09 03:08:20;;;;;;;129.00;45.10;;;;;;;6.81;100.00;102509.06;5050776;28;20469;-49
2023/04/09 03:10:45;;;;;;;130.88;45.17;;;;;;;6.81;100.00;102511.75;5050341;28;20469;-51
2023/04/09 03:13:11;;;;;;;130.35;44.83;;;;;;;6.79;100.00;102503.00;5050699;28;20105;-48
2023/04/09 03:15:36;;;;;;;132.90;46.28;;;;;;;6.78;100.00;102498.59;5050569;28;20061;-48
2023/04/09 03:18:02;;;;;;;138.05;47.50;;;;;;;6.75;100.00;102500.69;5064070;28;20035;-49
2023/04/09 03:20:27;;;;;;;125.20;46.08;;;;;;;6.76;100.00;102497.88;5068654;28;20423;-49
2023/04/09 03:22:52;;;;;;;137.90;47.85;;;;;;;6.79;100.00;102503.00;5070723;28;20051;-47
2023/04/09 03:25:19;;;;;;;131.32;47.47;;;;;;;6.80;100.00;102502.03;5070289;28;20027;-49
2023/04/09 03:27:45;;;;;;;136.90;48.90;;;;;;;6.80;100.00;102499.34;5070577;28;20048;-48
2023/04/09 03:30:10;;;;;;;133.35;47.65;;;;;;;6.81;100.00;102495.69;5071377;28;20528;-48
2023/04/09 03:32:36;;;;;;;140.23;46.75;;;;;;;6.79;100.00;102492.31;5070498;28;20040;-46
2023/04/09 03:35:01;;;;;;;138.27;46.78;;;;;;;6.80;100.00;102493.16;5071040;28;20504;-47
2023/04/09 03:37:26;;;;;;;125.82;45.70;;;;;;;6.84;100.00;102483.91;5070365;28;20536;-49
2023/04/09 03:39:52;;;;;;;123.38;45.20;;;;;;;6.88;100.00;102484.53;5070606;28;20047;-49
2023/04/09 03:42:17;;;;;;;125.50;44.33;;;;;;;6.91;100.00;102473.59;5070406;28;20028;-52
2023/04/09 03:44:42;;;;;;;131.10;45.13;;;;;;;6.95;100.00;102477.72;5070733;28;20025;-50
2023/04/09 03:47:08;;;;;;;140.43;47.75;;;;;;;6.98;100.00;102482.88;5070439;28;20085;-48
2023/04/09 03:49:36;;;;;;;128.00;44.67;;;;;;;7.02;100.00;102484.31;5070413;28;20594;-49
2023/04/09 03:52:01;;;;;;;;;;;;;;;7.09;100.00;102476.69;5072705;28;20315;-47
2023/04/09 03:54:30;;;;;;;126.05;44.92;;;;;;;7.16;100.00;102489.47;5074455;28;19995;-51
2023/04/09 03:56:56;;;;;;;123.90;43.15;;;;;;;7.21;100.00;102481.94;5074184;28;20397;-47
2023/04/09 03:59:21;;;;;;;137.73;46.83;;;;;;;7.26;100.00;102490.44;5074557;28;20024;-48
2023/04/09 04:01:47;;;;;;;130.85;44.33;;;;;;;7.28;100.00;102478.78;5074149;28;20035;-49
2023/04/09 04:04:12;;;;;;;127.75;45.67;;;;;;;7.26;100.00;102471.69;5074011;28;20020;-49
2023/04/09 04:06:38;;;;;;;130.32;44.42;;;;;;;7.31;100.00;102478.53;5074142;28;20031;-46
2023/04/09 04:09:03;;;;;;;129.57;45.42;;;;;;;7.35;100.00;102469.28;5073793;28;20031;-46
2023/04/09 04:11:29;;;;;;;127.13;45.60;;;;;;;7.39;100.00;102473.41;5073810;28;20029;-49
2023/04/09 04:13:54;;;;;;;134.27;48.65;;;;;;;7.47;100.00;102471.81;5073653;28;20769;-48
2023/04/09 04:16:20;;;;;;;130.75;45.20;;;;;;;7.52;100.00;102478.66;5072628;28;20021;-48
2023/04/09 04:18:45;;;;;;;134.52;47.00;;;;;;;7.57;100.00;102476.47;5073701;28;20035;-49
2023/04/09 04:21:15;;;;;;;129.27;45.42;;;;;;;7.59;100.00;102475.38;5073747;28;20104;-48
2023/04/09 04:23:40;;;;;;;129.90;45.03;;;;;;;7.61;100.00;102478.78;5073559;28;20020;-48
2023/04/09 04:26:09;;;;;;;136.32;48.45;;;;;;;7.68;100.00;102468.41;5073638;28;20027;-48
2023/04/09 04:28:38;;;;;;;128.82;45.42;;;;;;;7.72;100.00;102471.72;5072404;28;20059;-48
2023/04/09 04:31:10;;;;;;;137.55;47.70;;;;;;;7.76;100.00;102465.13;5073477;28;20489;-47
2023/04/09 04:33:36;;;;;;;133.20;45.65;;;;;;;7.77;100.00;102465.00;5073287;28;20070;-47
2023/04/09 04:36:05;;;;;;;140.48;47.60;;;;;;;7.81;100.00;102470.97;5073641;28;20024;-49
2023/04/09 04:38:31;;;;;;;137.55;47.25;;;;;;;7.80;100.00;102480.00;5073441;28;20654;-48
2023/04/09 04:40:56;;;;;;;139.00;47.35;;;;;;;7.86;100.00;102476.81;5073025;28;20032;-48
2023/04/09 04:43:22;;;;;;;142.68;46.70;;;;;;;7.91;100.00;102470.09;5073188;28;20036;-49
2023/04/09 04:45:47;;;;;;;135.48;45.85;;;;;;;7.96;100.00;102477.78;5071748;28;20032;-48
2023/04/09 04:48:12;;;;;;;137.13;47.33;;;;;;;7.93;100.00;102475.34;5073483;28;20029;-49
2023/04/09 04:50:38;;;;;;;130.27;46.22;;;;;;;7.91;100.00;102469.25;5073874;28;20078;-47
2023/04/09 04:53:03;;;;;;;134.63;47.60;;;;;;;7.94;100.00;102471.69;5073762;28;20089;-49
2023/04/09 04:55:28;;;;;;;147.15;48.00;;;;;;;7.98;100.00;102481.19;5074106;28;20024;-48
2023/04/09 04:57:54;;;;;;;132.90;46.90;;;;;;;8.03;100.00;102484.34;5074098;28;20078;-49
2023/04/09 05:00:19;;;;;;;131.00;45.58;;;;;;;8.07;100.00;102483.09;5074111;28;20229;-47
2023/04/09 05:02:44;;;;;;;128.02;45.60;;;;;;;8.12;100.00;102488.09;5073046;28;20103;-47
2023/04/09 05:05:10;;;;;;;131.95;46.65;;;;;;;8.12;100.00;102488.94;5074190;28;20028;-47
2023/04/09 05:07:35;;;;;;;133.88;45.58;;;;;;;8.13;100.00;102492.47;5073909;28;20028;-48
2023/04/09 05:10:01;;;;;;;134.30;45.83;;;;;;;8.14;100.00;102489.69;5073717;28;20036;-47
2023/04/09 05:12:26;;;;;;;127.95;45.67;;;;;;;8.17;100.00;102485.03;5073678;28;20469;-47
2023/04/09 05:14:51;;;;;;;125.43;44.47;;;;;;;8.19;100.00;102488.44;5073463;28;20570;-46
2023/04/09 05:17:17;;;;;;;138.38;46.92;;;;;;;8.19;100.00;102483.94;5074278;28;20461;-49
2023/04/09 05:19:42;;;;;;;131.38;45.50;;;;;;;8.25;100.00;102487.94;5072883;28;20036;-49
2023/04/09 05:22:08;;;;;;;133.15;47.63;;;;;;;8.26;100.00;102489.63;5073031;28;20059;-47
2023/04/09 05:24:33;;;;;;;131.88;46.30;;;;;;;8.27;100.00;102481.47;5072406;28;20070;-49
2023/04/09 05:27:00;;;;;;;134.13;46.60;;;;;;;8.31;100.00;102480.22;5072704;28;20135;-47
2023/04/09 05:29:25;;;;;;;132.13;47.30;;;;;;;8.39;100.00;102493.03;5072289;28;20025;-47
2023/04/09 05:31:50;;;;;;;138.10;49.20;;;;;;;8.35;100.00;102476.31;5072190;28;21991;-47
2023/04/09 05:34:16;;;;;;;141.13;46.72;;;;;;;8.38;100.00;102480.59;5072400;28;20021;-51
2023/04/09 05:36:41;;;;;;;130.52;46.78;;;;;;;8.42;100.00;102471.31;5072143;28;20027;-47
2023/04/09 05:39:06;;;;;;;134.73;47.05;;;;;;;8.49;100.00;102475.19;5072035;28;20116;-47
2023/04/09 05:41:32;;;;;;;131.32;47.63;;;;;;;8.53;100.00;102476.66;5072350;28;20028;-49
2023/04/09 05:43:57;;;;;;;128.43;45.75;;;;;;;8.60;100.00;102484.19;5072018;28;20033;-48
2023/04/09 05:46:23;;;;;;;133.13;46.85;;;;;;;8.66;100.00;102481.84;5071997;28;20036;-47
2023/04/09 05:48:48;;;;;;;128.55;46.13;;;;;;;8.72;100.00;102485.84;5071944;28;20492;-47
2023/04/09 05:51:14;;;;;;;127.75;46.05;;;;;;;8.76;100.00;102493.50;5071785;28;20035;-50
2023/04/09 05:53:40;;;;;;;139.40;46.88;;;;;;;8.83;100.00;102488.47;5072033;28;20053;-51
2023/04/09 05:56:13;;;;;;;145.77;48.80;;;;;;;8.88;100.00;102477.34;5071883;28;20534;-48
2023/04/09 05:58:38;;;;;;;127.93;45.65;;;;;;;8.87;100.00;102479.16;5071807;28;20111;-48
2023/04/09 06:01:04;;;;;;;129.32;46.55;;;;;;;8.93;100.00;102481.34;5071699;28;20100;-48
2023/04/09 06:03:29;;;;;;;138.75;48.22;;;;;;;8.94;100.00;102480.34;5071653;28;20111;-51
2023/04/09 06:05:55;;;;;;;135.07;47.88;;;;;;;8.94;100.00;102483.03;5071581;28;20427;-51
2023/04/09 06:08:20;;;;;;;133.68;46.90;;;;;;;8.98;100.00;102475.59;5072032;28;20392;-49
2023/04/09 06:10:46;;;;;;;140.10;49.38;;;;;;;9.00;100.00;102485.22;5072178;28;20039;-47
2023/04/09 06:13:11;;;;;;;133.75;48.10;;;;;;;9.01;100.00;102481.53;5071807;28;20489;-48
2023/04/09 06:15:38;;;;;;;134.25;46.92;;;;;;;9.08;100.00;102481.84;5070618;28;20111;-48
2023/04/09 06:18:03;;;;;;;129.50;47.17;;;;;;;9.11;100.00;102480.72;5070651;28;20154;-49
2023/04/09 06:20:28;;;;;;;134.55;46.38;;;;;;;9.10;100.00;102485.25;5072108;28;20480;-45
2023/04/09 06:22:54;;;;;;;141.95;47.83;;;;;;;9.08;100.00;102481.00;5071719;28;20099;-48
2023/04/09 06:25:19;;;;;;;137.05;47.47;;;;;;;9.16;100.00;102486.56;5072014;28;20037;-48
2023/04/09 06:27:45;;;;;;;135.45;47.50;;;;;;;9.23;100.00;102487.72;5072107;28;20381;-48
2023/04/09 06:30:10;;;;;;;142.40;47.67;;;;;;;9.31;100.00;102487.91;5071876;28;20028;-48
2023/04/09 06:32:36;;;;;;;138.20;48.45;;;;;;;9.29;100.00;102481.81;5071636;28;20500;-47
2023/04/09 06:35:01;;;;;;;145.40;48.60;;;;;;;9.32;100.00;102484.25;5071698;28;20352;-48
2023/04/09 06:37:26;;;;;;;138.10;47.90;;;;;;;9.35;100.00;102488.53;5071392;28;20465;-48
2023/04/09 06:39:52;;;;;;;138.77;46.53;;;;;;;9.35;100.00;102489.38;5071662;28;20385;-48
2023/04/09 06:42:17;;;;;;;137.40;45.60;;;;;;;9.34;100.00;102492.19;5071930;28;20032;-48
2023/04/09 06:44:42;;;;;;;142.80;48.97;;;;;;;9.38;100.00;102493.63;5071189;28;20029;-47
2023/04/09 06:47:08;;;;;;;135.90;47.05;;;;;;;9.47;100.00;102491.97;5071079;28;20041;-48
2023/04/09 06:49:33;;;;;;;121.35;43.80;;;;;;;9.52;100.00;102481.66;5071431;28;20100;-47
2023/04/09 06:51:59;;;;;;;125.22;44.03;;;;;;;9.49;100.00;102479.25;5071953;28;20058;-47
2023/04/09 06:54:24;;;;;;;131.07;45.67;;;;;;;9.54;100.00;102479.69;5071818;28;20048;-48
2023/04/09 06:56:50;;;;;;;126.22;43.95;;;;;;;9.62;100.00;102477.19;5072176;28;20105;-49
2023/04/09 06:59:16;;;;;;;133.27;45.58;;;;;;;9.70;100.00;102471.97;5071665;28;20052;-49
2023/04/09 07:01:41;;;;;;;138.65;43.92;;;;;;;9.67;100.00;102472.25;5070862;28;20052;-48
2023/04/09 07:04:07;;;;;;;123.50;42.88;;;;;;;9.63;100.00;102470.81;5070518;28;20095;-50
2023/04/09 07:06:32;;;;;;;125.35;43.35;;;;;;;9.62;100.00;102474.50;5070641;28;20021;-47
2023/04/09 07:08:57;;;;;;;135.30;45.95;;;;;;;9.58;100.00;102473.88;5070320;28;20449;-49
2023/04/09 07:11:23;;;;;;;130.07;45.42;;;;;;;9.56;100.00;102472.34;5070119;28;20129;-49
2023/04/09 07:13:49;;;;;;;128.75;43.45;;;;;;;9.55;100.00;102468.78;5070589;28;20031;-49
2023/04/09 07:16:14;;;;;;;127.32;44.92;;;;;;;9.57;100.00;102465.97;5069963;28;20052;-48
2023/04/09 07:18:40;;;;;;;133.73;45.08;;;;;;;9.67;100.00;102466.88;5070348;28;20047;-47
2023/04/09 07:21:05;;;;;;;133.00;43.30;;;;;;;9.68;100.00;102469.41;5070016;28;20024;-48
2023/04/09 07:23:33;;;;;;;129.82;43.33;;;;;;;9.73;100.00;102466.31;5069981;28;20332;-49
2023/04/09 07:26:02;;;;;;;135.93;43.88;;;;;;;9.78;100.00;102457.84;5070431;28;20427;-49
2023/04/09 07:28:27;;;;;;;;;;;;;;;9.73;100.00;102466.31;5071543;28;20028;-47
2023/04/09 07:30:52;;;;;;;135.25;44.80;;;;;;;9.84;100.00;102474.25;5071135;28;19912;-49
2023/04/09 07:33:18;;;;;;;122.30;41.30;;;;;;;9.85;100.00;102467.91;5071727;28;20043;-47
2023/04/09 07:35:43;;;;;;;131.38;44.97;;;;;;;9.76;100.00;102471.41;5071986;28;20569;-49
2023/04/09 07:38:08;;;;;;;127.50;43.30;;;;;;;9.68;100.00;102471.25;5070959;28;20070;-50
2023/04/09 07:40:35;;;;;;;141.50;45.20;;;;;;;9.72;100.00;102475.38;5070302;28;20031;-48
2023/04/09 07:43:01;;;;;;;134.73;43.97;;;;;;;9.83;100.00;102477.09;5070398;28;20495;-49
2023/04/09 07:45:26;;;;;;;138.40;44.42;;;;;;;9.91;100.00;102462.97;5070355;28;20025;-50
2023/04/09 07:47:52;;;;;;;130.65;45.92;;;;;;;9.92;100.00;102464.66;5070144;28;20119;-48
2023/04/09 07:50:17;;;;;;;136.43;45.55;;;;;;;9.86;100.00;102461.53;5070241;28;20128;-48
2023/04/09 07:52:42;;;;;;;131.45;44.20;;;;;;;9.86;100.00;102464.22;5069806;28;20049;-49
2023/04/09 07:55:08;;;;;;;131.52;42.92;;;;;;;9.85;100.00;102459.84;5069793;28;21105;-50
2023/04/09 07:57:33;;;;;;;137.55;45.30;;;;;;;9.91;100.00;102466.50;5070173;28;20059;-48
2023/04/09 07:59:59;;;;;;;141.13;44.20;;;;;;;9.93;100.00;102461.00;5070113;28;20093;-51
2023/04/09 08:02:24;;;;;;;137.32;44.30;;;;;;;9.88;100.00;102464.94;5070420;28;20025;-49
2023/04/09 08:04:50;;;;;;;141.27;45.83;;;;;;;9.84;100.00;102463.50;5071142;28;20032;-49
2023/04/09 08:07:15;;;;;;;157.90;47.25;;;;;;;9.81;100.00;102471.84;5071215;28;20532;-49
2023/04/09 08:09:40;;;;;;;147.77;46.67;;;;;;;9.81;100.00;102474.53;5071731;28;20065;-48
2023/04/09 08:12:06;;;;;;;144.32;43.97;;;;;;;9.86;100.00;102471.44;5071583;28;20057;-48
2023/04/09 08:14:31;;;;;;;136.60;43.92;;;;;;;9.89;100.00;102472.00;5070109;28;20036;-49
2023/04/09 08:16:57;;;;;;;152.82;47.03;;;;;;;9.86;100.00;102466.91;5068338;28;20070;-50
2023/04/09 08:19:22;;;;;;;159.05;51.00;;;;;;;9.80;100.00;102470.16;5069571;28;20021;-50
2023/04/09 08:21:48;;;;;;;177.98;51.03;;;;;;;9.85;100.00;102469.75;5069655;28;20400;-48
2023/04/09 08:24:14;;;;;;;202.23;54.92;;;;;;;9.91;100.00;102469.19;5069704;28;20441;-52
2023/04/09 08:26:40;;;;;;;215.85;56.45;;;;;;;9.94;100.00;102463.53;5069805;28;20055;-49
2023/04/09 08:29:06;;;;;;;212.35;56.92;;;;;;;9.89;100.00;102463.09;5069860;28;20051;-48
2023/04/09 08:31:32;;;;;;;224.15;60.80;;;;;;;9.94;100.00;102468.06;5069729;28;20069;-49
2023/04/09 08:33:57;;;;;;;227.45;59.35;;;;;;;9.98;100.00;102464.97;5070632;28;20098;-47
2023/04/09 08:36:23;;;;;;;228.98;60.83;;;;;;;9.99;100.00;102465.81;5068288;28;20031;-49
2023/04/09 08:38:48;;;;;;;215.98;59.00;;;;;;;10.03;100.00;102461.84;5070048;28;20029;-48
2023/04/09 08:41:21;;;;;;;231.45;60.97;;;;;;;10.01;100.00;102463.84;5056172;28;20033;-48
2023/04/09 08:43:47;;;;;;;223.93;59.58;;;;;;;9.99;100.00;102471.19;5055592;28;20052;-47
2023/04/09 08:46:15;;;;;;;232.13;61.03;;;;;;;9.87;100.00;102468.63;5056009;28;20021;-47
2023/04/09 08:48:42;;;;;;;221.68;57.58;;;;;;;9.92;100.00;102470.03;5055741;28;20033;-47
2023/04/09 08:51:12;;;;;;;227.70;58.58;;;;;;;10.01;100.00;102469.25;5056293;28;20401;-48
2023/04/09 08:53:38;;;;;;;220.93;59.63;;;;;;;10.03;100.00;102465.41;5053458;28;20440;-47
2023/04/09 08:56:03;;;;;;;212.50;57.70;;;;;;;9.96;100.00;102466.94;5051763;28;20036;-48
2023/04/09 08:58:29;;;;;;;223.35;59.45;;;;;;;9.85;100.00;102459.84;5053133;28;20025;-47
2023/04/09 09:00:54;;;;;;;214.93;55.85;;;;;;;9.74;100.00;102467.16;5053532;28;20478;-48
2023/04/09 09:03:19;;;;;;;217.90;57.95;;;;;;;9.78;100.00;102458.69;5053936;28;20037;-48
2023/04/09 09:05:45;;;;;;;216.57;59.40;;;;;;;9.68;100.00;102460.50;5054660;28;20021;-48
2023/04/09 09:08:22;;;;;;;220.20;58.47;;;;;;;9.80;100.00;102467.47;5054926;28;20053;-48
2023/04/09 09:10:47;;;;;;;208.23;56.63;;;;;;;9.88;100.00;102466.78;5055008;28;20035;-47
2023/04/09 09:13:23;;;;;;;213.23;57.65;;;;;;;10.02;100.00;102469.06;5054256;28;20663;-48
2023/04/09 09:16:10;;;;;;;217.30;59.47;;;;;;;9.93;100.00;102463.69;5055334;28;20047;-48
2023/04/09 09:18:38;;;;;;;205.25;55.60;;;;;;;9.85;100.00;102464.38;5055264;28;20025;-47
2023/04/09 09:21:13;;;;;;;211.38;56.92;;;;;;;9.83;100.00;102469.03;5055080;28;20436;-49
2023/04/09 09:23:38;;;;;;;204.32;56.33;;;;;;;9.71;100.00;102460.22;5053682;28;20478;-46
2023/04/09 09:26:25;;;;;;;222.00;60.60;;;;;;;9.67;100.00;102464.19;5052073;28;20021;-50
2023/04/09 09:28:50;;;;;;;204.68;58.38;;;;;;;9.92;100.00;102464.66;5052976;28;20094;-48
2023/04/09 09:31:18;;;;;;;208.27;58.95;;;;;;;9.97;100.00;102465.09;5052996;28;20029;-47
2023/04/09 09:33:43;;;;;;;203.43;58.30;;;;;;;9.96;100.00;102466.09;5052642;28;20025;-47
2023/04/09 09:36:09;;;;;;;202.45;56.97;;;;;;;9.96;100.00;102466.09;5051558;28;20486;-46
2023/04/09 09:38:55;;;;;;;201.45;56.70;;;;;;;9.73;100.00;102455.56;5052209;28;20033;-47
2023/04/09 09:41:21;;;;;;;202.23;55.88;;;;;;;9.73;100.00;102455.56;5052099;28;20025;-48
2023/04/09 09:43:47;;;;;;;199.65;54.97;;;;;;;9.78;100.00;102456.00;5051972;28;20413;-48
2023/04/09 09:46:14;;;;;;;203.27;54.72;;;;;;;9.64;100.00;102445.63;5052127;28;20079;-47
2023/04/09 09:48:41;;;;;;;193.40;55.42;;;;;;;9.82;100.00;102449.38;5052006;28;20021;-49
2023/04/09 09:51:11;;;;;;;189.85;57.38;;;;;;;10.01;100.00;102447.72;5052099;28;20041;-49
2023/04/09 09:53:38;;;;;;;184.63;52.97;;;;;;;10.08;100.00;102449.72;5051659;28;20049;-48
2023/04/09 09:56:04;;;;;;;192.85;55.35;;;;;;;10.03;100.00;102435.81;5051812;28;20493;-48
2023/04/09 09:58:40;;;;;;;192.15;56.35;;;;;;;9.95;100.00;102426.72;5051572;28;20021;-50
2023/04/09 10:01:10;;;;;;;206.68;57.90;;;;;;;9.90;100.00;102429.88;5050546;28;20046;-50
2023/04/09 10:03:37;;;;;;;189.95;55.78;;;;;;;9.96;100.00;102437.38;5050232;28;20024;-49
2023/04/09 10:06:03;;;;;;;194.73;54.35;;;;;;;9.83;100.00;102429.56;5050352;28;20028;-49
2023/04/09 10:08:30;;;;;;;199.55;56.33;;;;;;;9.84;100.00;102436.63;5051552;28;20047;-49
2023/04/09 10:10:55;;;;;;;191.00;58.33;;;;;;;9.98;100.00;102437.22;5051548;28;20074;-51
2023/04/09 10:13:28;;;;;;;191.32;54.40;;;;;;;10.21;100.00;102427.91;5049967;28;20021;-49
2023/04/09 10:15:53;;;;;;;202.30;60.10;;;;;;;10.22;100.00;102426.91;5050347;28;20401;-50
2023/04/09 10:18:20;;;;;;;214.20;63.65;;;;;;;10.07;100.00;102426.47;5049889;28;20033;-48
2023/04/09 10:20:51;;;;;;;204.23;60.78;;;;;;;10.00;100.00;102419.09;5051440;28;20143;-48
2023/04/09 10:23:33;;;;;;;205.57;63.13;;;;;;;10.06;100.00;102415.88;5051295;28;20025;-48
2023/04/09 10:25:58;;;;;;;207.88;62.40;;;;;;;10.06;100.00;102411.34;5049977;28;20029;-48
2023/04/09 10:28:23;;;;;;;208.07;61.47;;;;;;;10.13;100.00;102413.44;5051225;28;20033;-48
2023/04/09 10:30:49;;;;;;;205.93;61.45;;;;;;;10.25;100.00;102407.81;5051417;28;20025;-48
2023/04/09 10:33:16;;;;;;;202.18;58.50;;;;;;;10.35;100.00;102409.66;5052052;28;20021;-48
2023/04/09 10:35:42;;;;;;;197.93;59.25;;;;;;;10.37;100.00;102399.59;5050288;28;20037;-49
2023/04/09 10:38:09;;;;;;;207.20;63.08;;;;;;;10.45;100.00;102402.44;5049760;28;20025;-48
2023/04/09 10:40:40;;;;;;;217.27;61.42;;;;;;;10.55;100.00;102395.19;5051203;28;20025;-46
2023/04/09 10:43:06;;;;;;;213.93;62.88;;;;;;;10.62;100.00;102398.19;5051300;28;20079;-47
2023/04/09 10:45:39;;;;;;;198.52;59.38;;;;;;;10.60;100.00;102390.22;5051031;28;20047;-48
2023/04/09 10:48:05;;;;;;;198.93;61.22;;;;;;;10.68;100.00;102393.06;5051027;28;20033;-48
2023/04/09 10:50:31;;;;;;;204.95;62.10;;;;;;;10.72;100.00;102382.84;5050846;28;20057;-50
2023/04/09 10:52:59;;;;;;;194.38;60.42;;;;;;;10.82;100.00;102388.19;5049520;28;20047;-48
2023/04/09 10:55:38;;;;;;;191.13;60.38;;;;;;;10.84;100.00;102383.53;5050728;28;20199;-49
2023/04/09 10:58:10;;;;;;;193.32;58.30;;;;;;;11.14;100.00;102377.06;5051001;28;20021;-47
2023/04/09 11:00:37;;;;;;;191.07;56.72;;;;;;;11.50;100.00;102367.22;5050330;28;20089;-47